• Join FlightAware (Why Join?)
  • Login
  • US Flag 
 
05:09PM EST


 

Airport Tracker/Info


-or-


 

Live Flight TrackerFlight Track Log ✈ N960DL ✈ 09-Jun-2013 ✈ KRDU - KATL

Flight Track Log - Related Links

Times and Time Zones

All times are in EDT time to prevent confusion due to time zone crossing. See the N960DL flight status page for this flight to view local times or setup timezone preferences in your user account.

Time Position Orientation Groundspeed Altitude Reporting Facility
EDT Latitude Longitude Course Direction KTS MPH feet Rate Location/Type
03:44PM 35.8622 -78.8214 236° Southwest 187 215 1,600  Level Washington Center
03:45PM 35.8358 -78.8689 236° Southwest 214 246 2,900 1,980 Climbing Washington Center
03:46PM 35.8125 -78.9525 251° West 281 323 5,400 2,760 Climbing Washington Center
03:47PM 35.8239 -79.0683 277° West 276 318 8,900 2,520 Climbing Washington Center
03:48PM 35.8253 -79.1631 271° West 274 315 10,900 1,860 Climbing Washington Center
03:49PM 35.8325 -79.2658 275° West 322 371 12,700 1,980 Climbing Washington Center
03:51PM 35.8187 -79.4316 262° West  Level FlightAware Approximate
03:51PM 35.8042 -79.5836 262° West 380 437 17,600  Level Atlanta Center
03:52PM 35.7819 -79.7153 258° West 393 452 19,300 1,680 Climbing Atlanta Center
03:53PM 35.7592 -79.8394 257° West 407 468 21,000 1,800 Climbing Atlanta Center
03:54PM 35.7344 -79.9789 258° West 418 481 22,900 1,500 Climbing Atlanta Center
03:55PM 35.7100 -80.1258 258° West 418 481 24,000 1,020 Climbing Atlanta Center
03:56PM 35.6797 -80.2883 257° West 439 505 25,000 1,260 Climbing Atlanta Center
03:57PM 35.6425 -80.4356 253° West 455 524 26,600 1,500 Climbing Atlanta Center
03:58PM 35.5986 -80.5806 250° West 460 529 28,000 660 Climbing Atlanta Center
03:59PM 35.5544 -80.7203 249° West 455 524 28,000  Level Atlanta Center
04:00PM 35.5081 -80.8600 248° West 455 524 28,000  Level Atlanta Center
04:01PM 35.4617 -81.0044 249° West 455 524 28,000  Level Atlanta Center
04:02PM 35.4189 -81.1336 248° West 455 524 28,000  Level Atlanta Center
04:03PM 35.3742 -81.2753 249° West 455 524 28,000  Level Atlanta Center
04:04PM 35.3314 -81.4117 249° West 442 509 28,000  Level Atlanta Center
04:05PM 35.2842 -81.5556 248° West 430 495 28,000  Level Atlanta Center
04:06PM 35.2408 -81.6864 248° West 418 481 28,000  Level Atlanta Center
04:07PM 35.1956 -81.8225 248° West 418 481 28,000  Level Atlanta Center
04:08PM 35.1497 -81.9558 247° West 425 489 28,000  Level Atlanta Center
04:09PM 35.1039 -82.0914 248° West 425 489 28,000  Level Atlanta Center
04:10PM 35.0603 -82.2269 249° West 431 496 28,000  Level Atlanta Center
04:11PM 35.0222 -82.3369 247° West 425 489 28,000  Level Atlanta Center
04:12PM 34.9800 -82.4644 248° West 414 476 28,000 -660 Level Atlanta Center
04:13PM 34.9231 -82.5797 239° Southwest 402 463 26,700 -1,200 Descending Atlanta Center
04:14PM 34.8553 -82.6819 231° Southwest 402 463 25,600 -1,200 Descending Atlanta Center
04:15PM 34.7833 -82.7894 231° Southwest 382 440 24,300 -840 Descending Atlanta Center
04:16PM 34.7217 -82.8814 231° Southwest 374 430 24,000 -180 Descending Atlanta Center
04:17PM 34.6517 -82.9733 227° Southwest 374 430 24,000 -300 Level Atlanta Center
04:18PM 34.5961 -83.0672 234° Southwest 357 411 23,400 -780 Descending Atlanta Center
04:19PM 34.5339 -83.1486 227° Southwest 340 391 22,500 -1,380 Descending Atlanta Center
04:20PM 34.4636 -83.2175 219° Southwest 330 380 20,700 -1,800 Descending Atlanta Center
04:21PM 34.3908 -83.2761 214° Southwest 330 380 18,900 -1,500 Descending Atlanta Center
04:22PM 34.3119 -83.3472 217° Southwest 348 400 17,700 -1,680 Descending Atlanta Center
04:23PM 34.2331 -83.4183 217° Southwest 354 407 15,600 -2,100 Descending Atlanta Center
04:24PM 34.1603 -83.4864 218° Southwest 344 396 13,600 -1,800 Descending Atlanta Center
04:25PM 34.0897 -83.5547 219° Southwest 331 381 12,000 -840 Descending Atlanta Center
04:26PM 34.0106 -83.6278 217° Southwest 331 381 12,000  Level Atlanta Center
04:27PM 33.9419 -83.6958 219° Southwest 325 374 12,000  Level Atlanta Center
04:28PM 33.8775 -83.7561 218° Southwest 313 360 12,000 -480 Level Atlanta Center
04:29PM 33.8169 -83.8189 221° Southwest 301 346 11,100 -1,200 Descending Atlanta Center
04:30PM 33.7586 -83.8739 218° Southwest 285 328 9,600 -1,320 Descending Atlanta Center
04:31PM 33.7067 -83.9264 220° Southwest 266 306 8,500 -1,140 Descending Atlanta Center
04:32PM 33.6606 -83.9739 221° Southwest 231 266 7,400 -1,200 Descending Atlanta Center
04:33PM 33.6356 -84.0339 243° Southwest 206 237 6,100 -720 Descending Atlanta Center
04:34PM 33.6294 -84.0961 263° West 201 231 6,000 -420 Descending Atlanta Center
04:35PM 33.6333 -84.1333 277° West 193 222 5,500 -1,080 Descending Atlanta TRACON
04:36PM 33.6333 -84.2000 270° West 177 204 4,400 -960 Descending Atlanta TRACON
04:37PM 33.6333 -84.2500 270° West 176 203 3,600 -900 Descending Atlanta TRACON
04:38PM 33.6333 -84.3167 270° West 174 200 2,700 -900 Descending Atlanta TRACON
04:39PM 33.6333 -84.3667 270° West 153 176 1,800 -840 Descending Atlanta TRACON
04:41PM 33.6367 -84.4279 270° West  Level Estimated
04:48PM 33.6367 -84.4279 64° Northeast  Level Estimated
04:49PM 33.6367 -84.4279 64° Northeast  Level Estimated